sensor_id;sensor_type;location;lat;lon;timestamp;pressure;altitude;pressure_sealevel;temperature;humidity
41250;BME280;26984;59.928;30.306;2022-12-19T00:01:13;101521.31;;;0.58;100.00
41250;BME280;26984;59.928;30.306;2022-12-19T00:03:42;101521.75;;;0.63;100.00
41250;BME280;26984;59.928;30.306;2022-12-19T00:06:11;101513.03;;;0.72;100.00
41250;BME280;26984;59.928;30.306;2022-12-19T00:08:39;101514.56;;;0.75;100.00
41250;BME280;26984;59.928;30.306;2022-12-19T00:11:07;101502.69;;;0.69;100.00
41250;BME280;26984;59.928;30.306;2022-12-19T00:13:35;101504.66;;;0.77;100.00
41250;BME280;26984;59.928;30.306;2022-12-19T00:16:03;101504.25;;;0.71;100.00
41250;BME280;26984;59.928;30.306;2022-12-19T00:18:31;101490.25;;;0.69;100.00
41250;BME280;26984;59.928;30.306;2022-12-19T00:20:58;101489.91;;;0.84;100.00
41250;BME280;26984;59.928;30.306;2022-12-19T00:23:28;101495.63;;;0.79;100.00
41250;BME280;26984;59.928;30.306;2022-12-19T00:26:05;101494.69;;;0.90;100.00
41250;BME280;26984;59.928;30.306;2022-12-19T00:28:32;101501.88;;;0.78;100.00
41250;BME280;26984;59.928;30.306;2022-12-19T00:30:59;101499.50;;;0.75;100.00
41250;BME280;26984;59.928;30.306;2022-12-19T00:33:27;101506.09;;;0.81;100.00
41250;BME280;26984;59.928;30.306;2022-12-19T00:35:56;101499.22;;;0.78;100.00
41250;BME280;26984;59.928;30.306;2022-12-19T00:38:23;101502.28;;;0.74;100.00
41250;BME280;26984;59.928;30.306;2022-12-19T00:40:52;101500.09;;;0.79;100.00
41250;BME280;26984;59.928;30.306;2022-12-19T00:43:21;101502.03;;;0.77;100.00
41250;BME280;26984;59.928;30.306;2022-12-19T00:45:48;101493.97;;;0.88;100.00
41250;BME280;26984;59.928;30.306;2022-12-19T00:48:16;101501.53;;;0.92;100.00
41250;BME280;26984;59.928;30.306;2022-12-19T00:50:45;101499.69;;;0.83;100.00
41250;BME280;26984;59.928;30.306;2022-12-19T00:53:12;101491.72;;;0.83;100.00
41250;BME280;26984;59.928;30.306;2022-12-19T00:55:40;101486.59;;;0.91;100.00
41250;BME280;26984;59.928;30.306;2022-12-19T00:58:09;101491.00;;;1.12;100.00
41250;BME280;26984;59.928;30.306;2022-12-19T01:00:38;101490.59;;;1.07;100.00
41250;BME280;26984;59.928;30.306;2022-12-19T01:03:05;101483.47;;;1.07;100.00
41250;BME280;26984;59.928;30.306;2022-12-19T01:05:33;101472.59;;;1.10;100.00
41250;BME280;26984;59.928;30.306;2022-12-19T01:08:00;101473.50;;;1.00;100.00
41250;BME280;26984;59.928;30.306;2022-12-19T01:10:29;101475.63;;;1.06;100.00
41250;BME280;26984;59.928;30.306;2022-12-19T01:12:56;101476.44;;;1.06;100.00
41250;BME280;26984;59.928;30.306;2022-12-19T01:15:24;101473.13;;;1.04;100.00
41250;BME280;26984;59.928;30.306;2022-12-19T01:17:51;101463.94;;;1.18;100.00
41250;BME280;26984;59.928;30.306;2022-12-19T01:20:19;101459.44;;;1.09;100.00
41250;BME280;26984;59.928;30.306;2022-12-19T01:22:47;101458.91;;;1.15;100.00
41250;BME280;26984;59.928;30.306;2022-12-19T01:25:14;101464.91;;;1.17;100.00
41250;BME280;26984;59.928;30.306;2022-12-19T01:27:43;101454.31;;;1.27;100.00
41250;BME280;26984;59.928;30.306;2022-12-19T01:30:11;101457.44;;;1.32;100.00
41250;BME280;26984;59.928;30.306;2022-12-19T01:32:40;101465.78;;;1.27;100.00
41250;BME280;26984;59.928;30.306;2022-12-19T01:35:07;101463.00;;;1.29;100.00
41250;BME280;26984;59.928;30.306;2022-12-19T01:37:35;101449.97;;;1.16;100.00
41250;BME280;26984;59.928;30.306;2022-12-19T01:40:02;101431.94;;;1.19;100.00
41250;BME280;26984;59.928;30.306;2022-12-19T01:42:32;101438.66;;;1.24;100.00
41250;BME280;26984;59.928;30.306;2022-12-19T01:45:04;101445.78;;;1.23;100.00
41250;BME280;26984;59.928;30.306;2022-12-19T01:47:48;101445.09;;;1.21;100.00
41250;BME280;26984;59.928;30.306;2022-12-19T01:50:18;101453.19;;;1.19;100.00
41250;BME280;26984;59.928;30.306;2022-12-19T01:52:47;101462.09;;;1.09;100.00
41250;BME280;26984;59.928;30.306;2022-12-19T01:55:14;101462.22;;;1.07;100.00
41250;BME280;26984;59.928;30.306;2022-12-19T01:57:42;101470.72;;;1.01;100.00
41250;BME280;26984;59.928;30.306;2022-12-19T02:00:09;101465.16;;;1.04;100.00
41250;BME280;26984;59.928;30.306;2022-12-19T02:02:41;101461.41;;;1.07;100.00
41250;BME280;26984;59.928;30.306;2022-12-19T02:05:10;101476.44;;;1.06;100.00
41250;BME280;26984;59.928;30.306;2022-12-19T02:07:38;101488.56;;;0.99;100.00
41250;BME280;26984;59.928;30.306;2022-12-19T02:10:07;101499.66;;;1.04;100.00
41250;BME280;26984;59.928;30.306;2022-12-19T02:12:35;101494.78;;;1.09;100.00
41250;BME280;26984;59.928;30.306;2022-12-19T02:15:06;101493.09;;;1.08;100.00
41250;BME280;26984;59.928;30.306;2022-12-19T02:17:37;101493.81;;;1.10;100.00
41250;BME280;26984;59.928;30.306;2022-12-19T02:20:15;101499.81;;;1.12;100.00
41250;BME280;26984;59.928;30.306;2022-12-19T02:22:49;101506.22;;;1.10;100.00
41250;BME280;26984;59.928;30.306;2022-12-19T02:30:51;101516.72;;;1.11;100.00
41250;BME280;26984;59.928;30.306;2022-12-19T02:33:24;101513.09;;;1.12;100.00
41250;BME280;26984;59.928;30.306;2022-12-19T02:35:59;101524.09;;;1.08;100.00
41250;BME280;26984;59.928;30.306;2022-12-19T02:38:29;101551.38;;;1.19;100.00
41250;BME280;26984;59.928;30.306;2022-12-19T02:41:00;101533.34;;;1.13;100.00
41250;BME280;26984;59.928;30.306;2022-12-19T02:43:31;101536.44;;;1.18;100.00
41250;BME280;26984;59.928;30.306;2022-12-19T02:46:04;101530.69;;;1.13;100.00
41250;BME280;26984;59.928;30.306;2022-12-19T02:48:34;101551.63;;;1.07;100.00
41250;BME280;26984;59.928;30.306;2022-12-19T02:51:03;101554.53;;;1.04;100.00
41250;BME280;26984;59.928;30.306;2022-12-19T02:53:31;101545.34;;;1.08;100.00
41250;BME280;26984;59.928;30.306;2022-12-19T02:56:07;101532.44;;;1.03;100.00
41250;BME280;26984;59.928;30.306;2022-12-19T02:58:47;101545.44;;;1.06;100.00
41250;BME280;26984;59.928;30.306;2022-12-19T03:01:21;101540.28;;;1.05;100.00
41250;BME280;26984;59.928;30.306;2022-12-19T03:03:55;101559.53;;;0.97;100.00
41250;BME280;26984;59.928;30.306;2022-12-19T03:06:25;101555.47;;;0.93;100.00
41250;BME280;26984;59.928;30.306;2022-12-19T03:08:57;101557.53;;;0.89;100.00
41250;BME280;26984;59.928;30.306;2022-12-19T03:11:27;101566.44;;;0.88;100.00
41250;BME280;26984;59.928;30.306;2022-12-19T03:13:59;101570.50;;;0.92;100.00
41250;BME280;26984;59.928;30.306;2022-12-19T03:16:29;101576.34;;;0.86;100.00
41250;BME280;26984;59.928;30.306;2022-12-19T03:18:58;101573.44;;;0.89;100.00
41250;BME280;26984;59.928;30.306;2022-12-19T03:21:26;101572.97;;;0.84;100.00
41250;BME280;26984;59.928;30.306;2022-12-19T03:23:55;101589.16;;;0.81;100.00
41250;BME280;26984;59.928;30.306;2022-12-19T03:26:25;101584.69;;;0.82;100.00
41250;BME280;26984;59.928;30.306;2022-12-19T03:28:55;101585.91;;;0.78;100.00
41250;BME280;26984;59.928;30.306;2022-12-19T03:31:26;101600.09;;;0.67;100.00
41250;BME280;26984;59.928;30.306;2022-12-19T03:33:55;101576.47;;;0.64;100.00
41250;BME280;26984;59.928;30.306;2022-12-19T03:36:25;101585.66;;;0.60;100.00
41250;BME280;26984;59.928;30.306;2022-12-19T03:38:53;101595.81;;;0.55;100.00
41250;BME280;26984;59.928;30.306;2022-12-19T03:41:21;101579.56;;;0.48;100.00
41250;BME280;26984;59.928;30.306;2022-12-19T03:44:04;101585.38;;;0.42;100.00
41250;BME280;26984;59.928;30.306;2022-12-19T03:46:32;101599.22;;;0.45;100.00
41250;BME280;26984;59.928;30.306;2022-12-19T03:49:02;101590.31;;;0.46;100.00
41250;BME280;26984;59.928;30.306;2022-12-19T03:51:30;101603.19;;;0.51;100.00
41250;BME280;26984;59.928;30.306;2022-12-19T03:54:02;101589.09;;;0.51;100.00
41250;BME280;26984;59.928;30.306;2022-12-19T03:56:33;101597.28;;;0.47;100.00
41250;BME280;26984;59.928;30.306;2022-12-19T03:59:05;101604.41;;;0.47;100.00
41250;BME280;26984;59.928;30.306;2022-12-19T04:01:34;101600.78;;;0.48;100.00
41250;BME280;26984;59.928;30.306;2022-12-19T04:04:03;101611.13;;;0.51;100.00
41250;BME280;26984;59.928;30.306;2022-12-19T04:06:34;101624.50;;;0.50;100.00
41250;BME280;26984;59.928;30.306;2022-12-19T04:09:03;101632.59;;;0.48;100.00
41250;BME280;26984;59.928;30.306;2022-12-19T04:11:33;101615.72;;;0.49;100.00
41250;BME280;26984;59.928;30.306;2022-12-19T04:14:02;101625.63;;;0.47;100.00
41250;BME280;26984;59.928;30.306;2022-12-19T04:16:35;101637.44;;;0.43;100.00
41250;BME280;26984;59.928;30.306;2022-12-19T04:19:07;101631.56;;;0.39;100.00
41250;BME280;26984;59.928;30.306;2022-12-19T04:21:40;101631.66;;;0.38;100.00
41250;BME280;26984;59.928;30.306;2022-12-19T04:24:13;101646.63;;;0.28;100.00
41250;BME280;26984;59.928;30.306;2022-12-19T04:26:42;101628.06;;;0.28;100.00
41250;BME280;26984;59.928;30.306;2022-12-19T04:29:11;101643.97;;;0.28;100.00
41250;BME280;26984;59.928;30.306;2022-12-19T04:31:39;101647.94;;;0.33;100.00
41250;BME280;26984;59.928;30.306;2022-12-19T04:34:08;101686.03;;;0.32;100.00
41250;BME280;26984;59.928;30.306;2022-12-19T04:36:36;101648.53;;;0.37;100.00
41250;BME280;26984;59.928;30.306;2022-12-19T04:39:03;101657.59;;;0.34;100.00
41250;BME280;26984;59.928;30.306;2022-12-19T04:41:30;101649.25;;;0.39;100.00
41250;BME280;26984;59.928;30.306;2022-12-19T04:43:58;101680.94;;;0.40;100.00
41250;BME280;26984;59.928;30.306;2022-12-19T04:46:25;101639.50;;;0.39;100.00
41250;BME280;26984;59.928;30.306;2022-12-19T04:48:53;101648.41;;;0.38;100.00
41250;BME280;26984;59.928;30.306;2022-12-19T04:51:21;101669.63;;;0.38;100.00
41250;BME280;26984;59.928;30.306;2022-12-19T04:53:49;101665.28;;;0.37;100.00
41250;BME280;26984;59.928;30.306;2022-12-19T04:56:16;101679.38;;;0.38;100.00
41250;BME280;26984;59.928;30.306;2022-12-19T04:58:44;101669.16;;;0.33;100.00
41250;BME280;26984;59.928;30.306;2022-12-19T05:01:11;101668.44;;;0.31;100.00
41250;BME280;26984;59.928;30.306;2022-12-19T05:03:39;101669.25;;;0.32;100.00
41250;BME280;26984;59.928;30.306;2022-12-19T05:06:07;101676.91;;;0.25;100.00
41250;BME280;26984;59.928;30.306;2022-12-19T05:08:37;101670.13;;;0.32;100.00
41250;BME280;26984;59.928;30.306;2022-12-19T05:11:04;101670.97;;;0.33;100.00
41250;BME280;26984;59.928;30.306;2022-12-19T05:13:32;101677.22;;;0.32;100.00
41250;BME280;26984;59.928;30.306;2022-12-19T05:16:01;101682.41;;;0.33;100.00
41250;BME280;26984;59.928;30.306;2022-12-19T05:18:29;101689.75;;;0.41;100.00
41250;BME280;26984;59.928;30.306;2022-12-19T05:20:56;101697.09;;;0.37;100.00
41250;BME280;26984;59.928;30.306;2022-12-19T05:23:24;101703.25;;;0.38;100.00
41250;BME280;26984;59.928;30.306;2022-12-19T05:25:55;101703.47;;;0.35;100.00
41250;BME280;26984;59.928;30.306;2022-12-19T05:28:23;101697.97;;;0.27;100.00
41250;BME280;26984;59.928;30.306;2022-12-19T05:30:50;101722.28;;;0.32;100.00
41250;BME280;26984;59.928;30.306;2022-12-19T05:33:18;101707.50;;;0.29;100.00
41250;BME280;26984;59.928;30.306;2022-12-19T05:35:46;101720.84;;;0.28;100.00
41250;BME280;26984;59.928;30.306;2022-12-19T05:38:14;101719.63;;;0.32;100.00
41250;BME280;26984;59.928;30.306;2022-12-19T05:40:41;101714.47;;;0.30;100.00
41250;BME280;26984;59.928;30.306;2022-12-19T05:43:10;101710.25;;;0.28;100.00
41250;BME280;26984;59.928;30.306;2022-12-19T05:45:37;101730.22;;;0.32;100.00
41250;BME280;26984;59.928;30.306;2022-12-19T05:48:05;101724.81;;;0.33;100.00
41250;BME280;26984;59.928;30.306;2022-12-19T05:50:32;101713.97;;;0.36;100.00
41250;BME280;26984;59.928;30.306;2022-12-19T05:53:08;101716.63;;;0.36;100.00
41250;BME280;26984;59.928;30.306;2022-12-19T05:55:35;101723.38;;;0.29;100.00
41250;BME280;26984;59.928;30.306;2022-12-19T05:58:02;101729.50;;;0.41;100.00
41250;BME280;26984;59.928;30.306;2022-12-19T06:00:31;101742.75;;;0.41;100.00
41250;BME280;26984;59.928;30.306;2022-12-19T06:02:58;101745.56;;;0.39;100.00
41250;BME280;26984;59.928;30.306;2022-12-19T06:05:25;101761.56;;;0.38;100.00
41250;BME280;26984;59.928;30.306;2022-12-19T06:07:53;101735.88;;;0.38;100.00
41250;BME280;26984;59.928;30.306;2022-12-19T06:10:20;101740.94;;;0.41;100.00
41250;BME280;26984;59.928;30.306;2022-12-19T06:12:47;101739.38;;;0.39;100.00
41250;BME280;26984;59.928;30.306;2022-12-19T06:15:15;101750.47;;;0.44;100.00
41250;BME280;26984;59.928;30.306;2022-12-19T06:17:44;101751.06;;;0.47;100.00
41250;BME280;26984;59.928;30.306;2022-12-19T06:20:11;101753.47;;;0.51;100.00
41250;BME280;26984;59.928;30.306;2022-12-19T06:22:38;101750.59;;;0.54;100.00
41250;BME280;26984;59.928;30.306;2022-12-19T06:25:06;101781.53;;;0.53;100.00
41250;BME280;26984;59.928;30.306;2022-12-19T06:27:34;101776.59;;;0.48;100.00
41250;BME280;26984;59.928;30.306;2022-12-19T06:30:01;101765.91;;;0.50;100.00
41250;BME280;26984;59.928;30.306;2022-12-19T06:32:29;101768.28;;;0.53;100.00
41250;BME280;26984;59.928;30.306;2022-12-19T06:35:28;101774.56;;;0.52;100.00
41250;BME280;26984;59.928;30.306;2022-12-19T06:37:55;101764.94;;;0.51;100.00
41250;BME280;26984;59.928;30.306;2022-12-19T06:40:31;101773.84;;;0.50;100.00
41250;BME280;26984;59.928;30.306;2022-12-19T06:43:16;101779.63;;;0.44;100.00
41250;BME280;26984;59.928;30.306;2022-12-19T06:45:43;101778.53;;;0.35;100.00
41250;BME280;26984;59.928;30.306;2022-12-19T06:48:11;101779.16;;;0.28;100.00
41250;BME280;26984;59.928;30.306;2022-12-19T06:50:40;101778.91;;;0.31;100.00
41250;BME280;26984;59.928;30.306;2022-12-19T06:53:07;101780.97;;;0.27;100.00
41250;BME280;26984;59.928;30.306;2022-12-19T06:55:35;101789.06;;;0.26;100.00
41250;BME280;26984;59.928;30.306;2022-12-19T06:58:02;101790.97;;;0.23;100.00
41250;BME280;26984;59.928;30.306;2022-12-19T07:00:30;101793.63;;;0.23;100.00
41250;BME280;26984;59.928;30.306;2022-12-19T07:03:01;101792.91;;;0.21;100.00
41250;BME280;26984;59.928;30.306;2022-12-19T07:05:32;101803.63;;;0.20;100.00
41250;BME280;26984;59.928;30.306;2022-12-19T07:08:01;101797.94;;;0.24;100.00
41250;BME280;26984;59.928;30.306;2022-12-19T07:10:29;101811.56;;;0.20;100.00
41250;BME280;26984;59.928;30.306;2022-12-19T07:12:56;101817.09;;;0.28;100.00
41250;BME280;26984;59.928;30.306;2022-12-19T07:15:24;101823.50;;;0.26;100.00
41250;BME280;26984;59.928;30.306;2022-12-19T07:17:51;101832.53;;;0.23;100.00
41250;BME280;26984;59.928;30.306;2022-12-19T07:20:19;101825.78;;;0.30;100.00
41250;BME280;26984;59.928;30.306;2022-12-19T07:22:47;101833.28;;;0.25;100.00
41250;BME280;26984;59.928;30.306;2022-12-19T07:25:17;101823.59;;;0.13;100.00
41250;BME280;26984;59.928;30.306;2022-12-19T07:27:44;101829.88;;;0.12;100.00
41250;BME280;26984;59.928;30.306;2022-12-19T07:30:12;101823.97;;;0.08;100.00
41250;BME280;26984;59.928;30.306;2022-12-19T07:32:39;101842.88;;;0.04;100.00
41250;BME280;26984;59.928;30.306;2022-12-19T07:35:07;101859.25;;;-0.03;100.00
41250;BME280;26984;59.928;30.306;2022-12-19T07:37:35;101846.22;;;-0.06;100.00
41250;BME280;26984;59.928;30.306;2022-12-19T07:40:02;101846.47;;;-0.09;100.00
41250;BME280;26984;59.928;30.306;2022-12-19T07:42:31;101852.13;;;-0.13;100.00
41250;BME280;26984;59.928;30.306;2022-12-19T07:44:59;101867.88;;;-0.12;100.00
41250;BME280;26984;59.928;30.306;2022-12-19T07:47:27;101866.19;;;-0.13;100.00
41250;BME280;26984;59.928;30.306;2022-12-19T07:49:54;101866.19;;;-0.13;100.00
41250;BME280;26984;59.928;30.306;2022-12-19T07:52:22;101882.31;;;-0.16;100.00
41250;BME280;26984;59.928;30.306;2022-12-19T07:54:49;101899.06;;;-0.15;100.00
41250;BME280;26984;59.928;30.306;2022-12-19T07:57:16;101868.59;;;-0.21;100.00
41250;BME280;26984;59.928;30.306;2022-12-19T07:59:45;101883.28;;;-0.17;100.00
41250;BME280;26984;59.928;30.306;2022-12-19T08:02:12;101893.97;;;-0.18;100.00
41250;BME280;26984;59.928;30.306;2022-12-19T08:04:40;101907.22;;;-0.18;100.00
41250;BME280;26984;59.928;30.306;2022-12-19T08:07:07;101896.03;;;-0.22;100.00
41250;BME280;26984;59.928;30.306;2022-12-19T08:09:34;101896.03;;;-0.22;100.00
41250;BME280;26984;59.928;30.306;2022-12-19T08:12:02;101889.16;;;-0.25;100.00
41250;BME280;26984;59.928;30.306;2022-12-19T08:14:30;101886.84;;;-0.29;100.00
41250;BME280;26984;59.928;30.306;2022-12-19T08:17:01;101896.69;;;-0.42;100.00
41250;BME280;26984;59.928;30.306;2022-12-19T08:19:29;101900.28;;;-0.43;100.00
41250;BME280;26984;59.928;30.306;2022-12-19T08:21:56;101910.78;;;-0.42;100.00
41250;BME280;26984;59.928;30.306;2022-12-19T08:24:24;101913.50;;;-0.43;100.00
41250;BME280;26984;59.928;30.306;2022-12-19T08:26:51;101923.69;;;-0.50;100.00
41250;BME280;26984;59.928;30.306;2022-12-19T08:29:19;101926.69;;;-0.55;100.00
41250;BME280;26984;59.928;30.306;2022-12-19T08:31:48;101938.13;;;-0.54;100.00
41250;BME280;26984;59.928;30.306;2022-12-19T08:34:16;101933.19;;;-0.59;100.00
41250;BME280;26984;59.928;30.306;2022-12-19T08:36:44;101937.84;;;-0.62;100.00
41250;BME280;26984;59.928;30.306;2022-12-19T08:39:11;101943.16;;;-0.62;100.00
41250;BME280;26984;59.928;30.306;2022-12-19T08:42:09;101945.59;;;-0.72;100.00
41250;BME280;26984;59.928;30.306;2022-12-19T08:44:36;101951.09;;;-0.75;100.00
41250;BME280;26984;59.928;30.306;2022-12-19T08:47:04;101967.13;;;-0.77;100.00
41250;BME280;26984;59.928;30.306;2022-12-19T08:49:33;101979.31;;;-0.87;100.00
41250;BME280;26984;59.928;30.306;2022-12-19T08:52:00;101978.25;;;-0.84;100.00
41250;BME280;26984;59.928;30.306;2022-12-19T08:54:28;101977.63;;;-0.88;100.00
41250;BME280;26984;59.928;30.306;2022-12-19T08:56:55;101977.63;;;-0.88;100.00
41250;BME280;26984;59.928;30.306;2022-12-19T08:59:23;101975.69;;;-0.86;100.00
41250;BME280;26984;59.928;30.306;2022-12-19T09:01:50;101982.91;;;-0.88;100.00
41250;BME280;26984;59.928;30.306;2022-12-19T09:04:17;101977.81;;;-0.78;100.00
41250;BME280;26984;59.928;30.306;2022-12-19T09:06:46;101985.50;;;-0.75;100.00
41250;BME280;26984;59.928;30.306;2022-12-19T09:09:14;101993.34;;;-0.74;100.00
41250;BME280;26984;59.928;30.306;2022-12-19T09:11:41;102000.03;;;-0.81;100.00
41250;BME280;26984;59.928;30.306;2022-12-19T09:14:09;101985.13;;;-0.82;100.00
41250;BME280;26984;59.928;30.306;2022-12-19T09:16:37;102011.06;;;-0.87;100.00
41250;BME280;26984;59.928;30.306;2022-12-19T09:19:04;101999.13;;;-0.92;100.00
41250;BME280;26984;59.928;30.306;2022-12-19T09:21:32;101996.78;;;-0.97;100.00
41250;BME280;26984;59.928;30.306;2022-12-19T09:24:00;101994.03;;;-0.95;100.00
41250;BME280;26984;59.928;30.306;2022-12-19T09:26:28;101997.00;;;-1.00;100.00
41250;BME280;26984;59.928;30.306;2022-12-19T09:28:56;102007.38;;;-0.97;100.00
41250;BME280;26984;59.928;30.306;2022-12-19T09:31:24;102007.38;;;-0.97;100.00
41250;BME280;26984;59.928;30.306;2022-12-19T09:33:51;102014.44;;;-0.98;100.00
41250;BME280;26984;59.928;30.306;2022-12-19T09:36:20;102019.88;;;-0.99;100.00
41250;BME280;26984;59.928;30.306;2022-12-19T09:38:47;102024.41;;;-1.01;100.00
41250;BME280;26984;59.928;30.306;2022-12-19T09:41:25;102019.66;;;-0.96;100.00
41250;BME280;26984;59.928;30.306;2022-12-19T09:43:56;102035.53;;;-0.96;100.00
41250;BME280;26984;59.928;30.306;2022-12-19T09:46:30;102038.91;;;-0.94;100.00
41250;BME280;26984;59.928;30.306;2022-12-19T09:49:02;102052.66;;;-0.89;100.00
41250;BME280;26984;59.928;30.306;2022-12-19T09:51:31;102044.81;;;-0.90;100.00
41250;BME280;26984;59.928;30.306;2022-12-19T09:54:00;102039.19;;;-0.86;100.00
41250;BME280;26984;59.928;30.306;2022-12-19T09:56:34;102051.16;;;-0.80;100.00
41250;BME280;26984;59.928;30.306;2022-12-19T09:59:03;102052.00;;;-0.80;100.00
41250;BME280;26984;59.928;30.306;2022-12-19T10:01:34;102047.69;;;-0.81;100.00
41250;BME280;26984;59.928;30.306;2022-12-19T10:04:08;102055.91;;;-0.73;100.00
41250;BME280;26984;59.928;30.306;2022-12-19T10:06:37;102043.94;;;-0.65;100.00
41250;BME280;26984;59.928;30.306;2022-12-19T10:09:07;102060.44;;;-0.62;100.00
41250;BME280;26984;59.928;30.306;2022-12-19T10:11:46;102053.97;;;-0.58;100.00
41250;BME280;26984;59.928;30.306;2022-12-19T10:14:23;102057.38;;;-0.56;100.00
41250;BME280;26984;59.928;30.306;2022-12-19T10:16:57;102060.53;;;-0.51;100.00
41250;BME280;26984;59.928;30.306;2022-12-19T10:19:26;102063.72;;;-0.45;100.00
41250;BME280;26984;59.928;30.306;2022-12-19T10:21:58;102068.03;;;-0.44;100.00
41250;BME280;26984;59.928;30.306;2022-12-19T10:24:38;102066.97;;;-0.42;100.00
41250;BME280;26984;59.928;30.306;2022-12-19T10:27:20;102070.47;;;-0.41;100.00
41250;BME280;26984;59.928;30.306;2022-12-19T10:29:55;102068.88;;;-0.44;100.00
41250;BME280;26984;59.928;30.306;2022-12-19T10:32:29;102073.53;;;-0.47;100.00
41250;BME280;26984;59.928;30.306;2022-12-19T10:34:59;102080.22;;;-0.42;100.00
41250;BME280;26984;59.928;30.306;2022-12-19T10:37:28;102077.56;;;-0.42;100.00
41250;BME280;26984;59.928;30.306;2022-12-19T10:39:58;102073.84;;;-0.39;100.00
41250;BME280;26984;59.928;30.306;2022-12-19T10:42:44;102075.44;;;-0.37;100.00
41250;BME280;26984;59.928;30.306;2022-12-19T10:45:15;102074.38;;;-0.34;100.00
41250;BME280;26984;59.928;30.306;2022-12-19T10:47:44;102070.88;;;-0.35;100.00
41250;BME280;26984;59.928;30.306;2022-12-19T10:50:13;102078.69;;;-0.33;100.00
41250;BME280;26984;59.928;30.306;2022-12-19T10:52:47;102073.81;;;-0.27;100.00
41250;BME280;26984;59.928;30.306;2022-12-19T10:55:32;102078.38;;;-0.29;100.00
41250;BME280;26984;59.928;30.306;2022-12-19T10:58:10;102083.22;;;-0.22;100.00
41250;BME280;26984;59.928;30.306;2022-12-19T11:00:44;102074.00;;;-0.17;100.00
41250;BME280;26984;59.928;30.306;2022-12-19T11:03:12;102080.66;;;-0.11;100.00
41250;BME280;26984;59.928;30.306;2022-12-19T11:05:42;102080.34;;;-0.07;100.00
41250;BME280;26984;59.928;30.306;2022-12-19T11:08:13;102081.03;;;-0.05;100.00
41250;BME280;26984;59.928;30.306;2022-12-19T11:10:42;102083.13;;;0.03;100.00
41250;BME280;26984;59.928;30.306;2022-12-19T11:13:17;102083.88;;;0.05;100.00
41250;BME280;26984;59.928;30.306;2022-12-19T11:15:45;102096.16;;;0.06;100.00
41250;BME280;26984;59.928;30.306;2022-12-19T11:18:13;102087.38;;;0.06;100.00
41250;BME280;26984;59.928;30.306;2022-12-19T11:20:45;102092.09;;;0.13;100.00
41250;BME280;26984;59.928;30.306;2022-12-19T11:23:19;102099.84;;;0.16;100.00
41250;BME280;26984;59.928;30.306;2022-12-19T11:25:51;102087.31;;;0.18;100.00
41250;BME280;26984;59.928;30.306;2022-12-19T11:28:21;102086.84;;;0.24;100.00
41250;BME280;26984;59.928;30.306;2022-12-19T11:30:57;102096.53;;;0.26;100.00
41250;BME280;26984;59.928;30.306;2022-12-19T11:33:27;102097.13;;;0.29;100.00
41250;BME280;26984;59.928;30.306;2022-12-19T11:35:56;102103.91;;;0.33;100.00
41250;BME280;26984;59.928;30.306;2022-12-19T11:38:38;102110.63;;;0.26;100.00
41250;BME280;26984;59.928;30.306;2022-12-19T11:41:11;102107.63;;;0.31;100.00
41250;BME280;26984;59.928;30.306;2022-12-19T11:43:43;102108.06;;;0.24;100.00
41250;BME280;26984;59.928;30.306;2022-12-19T11:46:16;102098.56;;;0.22;100.00
41250;BME280;26984;59.928;30.306;2022-12-19T11:48:48;102099.59;;;0.19;100.00
41250;BME280;26984;59.928;30.306;2022-12-19T11:51:20;102097.53;;;0.12;100.00
41250;BME280;26984;59.928;30.306;2022-12-19T11:53:51;102094.66;;;0.15;100.00
41250;BME280;26984;59.928;30.306;2022-12-19T11:56:22;102091.25;;;0.13;100.00
41250;BME280;26984;59.928;30.306;2022-12-19T11:58:55;102093.09;;;-0.01;100.00
41250;BME280;26984;59.928;30.306;2022-12-19T12:01:29;102091.09;;;0.03;100.00
41250;BME280;26984;59.928;30.306;2022-12-19T12:04:07;102094.81;;;0.01;100.00
41250;BME280;26984;59.928;30.306;2022-12-19T12:06:39;102093.22;;;-0.02;100.00
41250;BME280;26984;59.928;30.306;2022-12-19T12:09:13;102098.88;;;-0.07;100.00
41250;BME280;26984;59.928;30.306;2022-12-19T12:11:44;102104.19;;;-0.07;100.00
41250;BME280;26984;59.928;30.306;2022-12-19T12:14:21;102105.09;;;-0.08;100.00
41250;BME280;26984;59.928;30.306;2022-12-19T12:16:57;102102.81;;;-0.12;100.00
41250;BME280;26984;59.928;30.306;2022-12-19T12:19:32;102108.53;;;-0.18;100.00
41250;BME280;26984;59.928;30.306;2022-12-19T12:22:05;102104.31;;;-0.21;100.00
41250;BME280;26984;59.928;30.306;2022-12-19T12:24:39;102112.50;;;-0.24;100.00
41250;BME280;26984;59.928;30.306;2022-12-19T12:27:14;102113.53;;;-0.27;100.00
41250;BME280;26984;59.928;30.306;2022-12-19T12:29:47;102121.38;;;-0.25;100.00
41250;BME280;26984;59.928;30.306;2022-12-19T12:32:22;102118.97;;;-0.28;100.00
41250;BME280;26984;59.928;30.306;2022-12-19T12:34:58;102110.38;;;-0.32;100.00
41250;BME280;26984;59.928;30.306;2022-12-19T12:37:35;102122.44;;;-0.28;100.00
41250;BME280;26984;59.928;30.306;2022-12-19T12:40:11;102120.03;;;-0.31;100.00
41250;BME280;26984;59.928;30.306;2022-12-19T12:42:44;102123.84;;;-0.35;100.00
41250;BME280;26984;59.928;30.306;2022-12-19T12:45:21;102116.31;;;-0.41;100.00
41250;BME280;26984;59.928;30.306;2022-12-19T12:47:50;102122.47;;;-0.40;100.00
41250;BME280;26984;59.928;30.306;2022-12-19T12:50:18;102128.59;;;-0.40;100.00
41250;BME280;26984;59.928;30.306;2022-12-19T12:52:47;102135.50;;;-0.37;100.00
41250;BME280;26984;59.928;30.306;2022-12-19T12:55:16;102123.09;;;-0.37;100.00